Time;durP1;ratioP1;P1;durP2;ratioP2;P2;SDS_P1;SDS_P2;PMS_P1;PMS_P2;Temp;Humidity;BMP_temperature;BMP_pressure;BME280_temperature;BME280_humidity;BME280_pressure;Samples;Min_cycle;Max_cycle;Signal;HPM_P1;HPM_P2
2021/03/31 00:01:50;;;;;;;5.87;4.33;;;;;;;11.37;43.09;101551.22;5008219;28;20631;-75
2021/03/31 00:04:15;;;;;;;4.63;4.10;;;;;;;11.12;44.53;101553.94;5004741;28;20238;-76
2021/03/31 00:06:42;;;;;;;5.17;4.67;;;;;;;11.11;44.45;101549.56;5013584;28;20215;-76
2021/03/31 00:09:08;;;;;;;4.33;3.97;;;;;;;11.09;44.63;101546.09;5006143;28;20233;-76
2021/03/31 00:11:34;;;;;;;6.03;4.53;;;;;;;11.10;44.02;101540.88;5008316;28;20233;-76
2021/03/31 00:14:00;;;;;;;4.73;4.03;;;;;;;10.90;44.55;101542.66;4998854;28;20640;-76
2021/03/31 00:16:26;;;;;;;7.00;4.63;;;;;;;10.87;43.97;101546.16;5004205;28;20227;-76
2021/03/31 00:21:26;;;;;;;5.47;4.27;;;;;;;10.96;42.00;101533.94;5075587;22;20243;-76
2021/03/31 00:23:53;;;;;;;4.93;4.37;;;;;;;11.02;43.81;101526.09;5058724;28;20205;-76
2021/03/31 00:26:19;;;;;;;4.97;4.47;;;;;;;11.05;43.86;101519.09;5058873;28;20687;-77
2021/03/31 00:28:45;;;;;;;6.63;4.77;;;;;;;11.04;43.29;101521.72;5064634;28;20205;-77
2021/03/31 00:31:11;;;;;;;4.87;4.37;;;;;;;11.01;43.93;101512.16;5042633;28;20241;-77
2021/03/31 00:33:37;;;;;;;6.97;5.40;;;;;;;10.96;39.87;101505.22;5044936;28;20288;-76
2021/03/31 00:36:04;;;;;;;6.03;4.93;;;;;;;11.03;39.75;101505.19;5043375;28;20221;-76
2021/03/31 00:38:30;;;;;;;5.97;5.03;;;;;;;11.03;39.98;101499.97;5050519;28;20678;-76
2021/03/31 00:40:57;;;;;;;5.97;5.30;;;;;;;11.07;39.08;101501.69;5038203;28;20244;-77
2021/03/31 00:43:24;;;;;;;11.23;5.87;;;;;;;11.06;39.96;101496.44;5051924;28;20201;-76
2021/03/31 00:45:50;;;;;;;6.97;5.10;;;;;;;11.07;40.98;101493.84;5039934;28;20206;-77
2021/03/31 00:48:17;;;;;;;5.90;5.40;;;;;;;11.01;42.02;101486.03;5034457;28;20731;-76
2021/03/31 00:50:44;;;;;;;5.47;4.97;;;;;;;10.91;43.44;101484.34;5041066;28;20217;-76
2021/03/31 00:53:11;;;;;;;5.70;5.20;;;;;;;10.80;44.93;101487.00;5040567;28;20263;-76
2021/03/31 00:55:37;;;;;;;5.10;4.60;;;;;;;10.71;44.21;101482.66;5043408;28;20577;-75
2021/03/31 00:58:04;;;;;;;6.30;5.30;;;;;;;10.58;46.35;101482.69;5040840;28;20202;-76
2021/03/31 01:00:31;;;;;;;6.30;4.50;;;;;;;10.42;46.79;101484.44;5043849;28;20229;-76
2021/03/31 01:02:57;;;;;;;5.40;4.90;;;;;;;10.31;46.39;101477.50;5050211;28;20319;-76
2021/03/31 01:05:25;;;;;;;4.70;4.23;;;;;;;10.34;46.27;101469.66;5044186;28;20228;-76
2021/03/31 01:07:51;;;;;;;5.90;5.00;;;;;;;10.31;46.45;101469.69;5041982;28;20192;-75
2021/03/31 01:10:20;;;;;;;5.17;4.67;;;;;;;10.28;47.47;101467.03;5033045;28;20359;-76
2021/03/31 01:13:12;;;;;;;4.10;3.77;;;;;;;10.21;47.17;101459.19;5051867;28;20209;-76
2021/03/31 01:15:46;;;;;;;6.40;4.37;;;;;;;10.12;44.64;101465.31;5026543;28;20214;-76
2021/03/31 01:18:26;;;;;;;5.47;4.70;;;;;;;10.09;45.45;101473.16;5039608;28;20200;-76
2021/03/31 01:21:34;;;;;;;5.00;4.50;;;;;;;10.10;46.38;101467.91;5030084;28;20241;-77
2021/03/31 01:24:36;;;;;;;5.17;4.60;;;;;;;9.98;46.61;101469.66;5034465;28;20202;-75
2021/03/31 01:27:06;;;;;;;6.67;4.73;;;;;;;9.83;48.72;101460.97;5034393;28;20579;-76
2021/03/31 01:29:46;;;;;;;4.80;4.33;;;;;;;9.70;49.53;101456.63;5038030;28;20479;-76
2021/03/31 01:32:25;;;;;;;5.53;4.20;;;;;;;9.68;49.46;101463.56;5047556;28;20224;-76
2021/03/31 01:34:54;;;;;;;7.67;4.40;;;;;;;9.60;49.41;101466.16;5026702;28;20224;-76
2021/03/31 01:37:24;;;;;;;5.53;4.97;;;;;;;9.65;47.30;101461.84;5028487;28;20221;-76
2021/03/31 01:39:53;;;;;;;5.30;4.77;;;;;;;9.74;47.00;101466.19;5032211;28;20229;-76
2021/03/31 01:42:21;;;;;;;5.50;5.00;;;;;;;9.83;45.91;101458.38;5022495;28;20220;-76
2021/03/31 01:44:52;;;;;;;5.33;4.73;;;;;;;9.91;45.62;101456.63;5034461;28;20603;-76
2021/03/31 01:47:18;;;;;;;5.97;5.47;;;;;;;9.91;46.24;101459.22;5039958;28;20206;-76
2021/03/31 01:49:45;;;;;;;5.47;4.87;;;;;;;9.84;47.26;101446.19;5032595;28;20239;-76
2021/03/31 01:52:13;;;;;;;5.00;4.30;;;;;;;9.81;46.41;101436.63;5046483;28;20197;-77
2021/03/31 01:54:42;;;;;;;5.53;5.03;;;;;;;9.75;48.97;101441.81;5047876;28;20202;-76
2021/03/31 01:57:09;;;;;;;5.73;5.00;;;;;;;9.62;49.29;101434.88;5045470;28;20209;-75
2021/03/31 01:59:36;;;;;;;5.67;5.17;;;;;;;9.46;50.45;101429.63;5043241;28;20226;-77
2021/03/31 02:02:03;;;;;;;6.13;5.10;;;;;;;9.47;48.75;101431.38;5045270;28;20201;-76
2021/03/31 02:04:32;;;;;;;5.73;5.13;;;;;;;9.41;48.78;101423.53;5038474;28;20206;-77
2021/03/31 02:06:59;;;;;;;6.67;5.77;;;;;;;9.33;49.48;101417.44;5041419;28;20201;-76
2021/03/31 02:09:25;;;;;;;5.13;4.23;;;;;;;9.31;50.08;101419.19;5035351;28;20561;-76
2021/03/31 02:11:52;;;;;;;5.50;5.00;;;;;;;9.24;50.19;101413.09;5047570;28;20204;-76
2021/03/31 02:14:20;;;;;;;5.43;4.73;;;;;;;9.25;50.74;101412.22;5042366;28;20205;-76
2021/03/31 02:16:47;;;;;;;5.47;4.87;;;;;;;9.25;50.46;101409.63;5042614;28;20282;-76
2021/03/31 02:19:14;;;;;;;7.50;6.00;;;;;;;9.32;50.33;101403.56;5043037;28;20201;-76
2021/03/31 02:21:42;;;;;;;6.97;6.37;;;;;;;9.31;50.52;101400.94;5042525;28;20213;-77
2021/03/31 02:24:10;;;;;;;8.63;6.77;;;;;;;9.31;49.22;101398.34;5042428;28;20285;-76
2021/03/31 02:26:37;;;;;;;7.10;6.10;;;;;;;9.37;49.23;101403.56;5041976;28;20198;-76
2021/03/31 02:29:03;;;;;;;6.87;5.57;;;;;;;9.45;49.10;101400.97;5039487;28;20554;-76
2021/03/31 02:31:29;;;;;;;6.73;5.77;;;;;;;9.45;48.11;101409.66;5045375;28;20495;-76
2021/03/31 02:33:56;;;;;;;7.63;5.77;;;;;;;9.44;47.85;101399.25;5044119;28;20201;-75
2021/03/31 02:36:23;;;;;;;6.03;5.43;;;;;;;9.48;48.07;101400.97;5038851;28;20233;-76
2021/03/31 02:38:50;;;;;;;6.27;5.67;;;;;;;9.48;47.52;101393.16;5051142;28;20208;-76
2021/03/31 02:41:18;;;;;;;6.83;6.10;;;;;;;9.48;48.98;101385.34;5030454;28;20229;-77
2021/03/31 02:43:48;;;;;;;5.97;5.23;;;;;;;9.42;50.02;101394.03;5038314;28;20204;-76
2021/03/31 02:46:18;;;;;;;6.20;5.60;;;;;;;9.31;50.40;101390.53;5038887;28;20690;-77
2021/03/31 02:48:45;;;;;;;6.20;5.60;;;;;;;9.20;50.76;101387.06;5037318;28;20204;-76
2021/03/31 02:51:12;;;;;;;6.13;5.53;;;;;;;9.22;49.59;101394.00;5032287;28;20234;-76
2021/03/31 02:53:40;;;;;;;6.27;5.20;;;;;;;9.17;50.71;101389.63;5043964;28;20198;-76
2021/03/31 02:56:07;;;;;;;6.63;5.40;;;;;;;9.09;48.65;101382.66;5041949;28;20224;-76
2021/03/31 02:58:36;;;;;;;6.13;5.53;;;;;;;9.09;49.69;101374.84;5048042;28;20217;-76
2021/03/31 03:01:03;;;;;;;5.37;4.83;;;;;;;9.04;51.26;101383.50;5041574;28;20294;-76
2021/03/31 03:03:32;;;;;;;6.33;5.10;;;;;;;9.02;51.63;101380.03;5043342;28;20217;-77
2021/03/31 03:05:58;;;;;;;6.03;5.43;;;;;;;8.90;53.02;101371.34;5041407;28;20211;-76
2021/03/31 03:08:25;;;;;;;8.30;5.80;;;;;;;8.78;52.37;101373.91;5051604;28;20206;-75
2021/03/31 03:10:51;;;;;;;5.63;5.13;;;;;;;8.78;52.35;101371.31;5038263;28;20595;-76
2021/03/31 03:13:20;;;;;;;6.43;5.13;;;;;;;8.81;50.32;101370.44;5054308;28;20201;-76
2021/03/31 03:15:47;;;;;;;6.70;5.27;;;;;;;8.85;50.23;101362.63;5030239;28;20768;-76
2021/03/31 03:18:14;;;;;;;5.60;5.00;;;;;;;8.92;51.09;101360.94;5046696;28;20278;-77
2021/03/31 03:20:40;;;;;;;7.13;5.50;;;;;;;8.80;52.21;101359.16;5035146;28;20237;-77
2021/03/31 03:23:09;;;;;;;7.77;4.87;;;;;;;8.70;52.98;101355.66;5048793;28;20195;-76
2021/03/31 03:25:36;;;;;;;5.90;5.17;;;;;;;8.57;53.51;101353.88;5038512;28;20200;-76
2021/03/31 03:28:04;;;;;;;5.60;5.03;;;;;;;8.43;53.87;101355.56;5049515;28;20198;-76
2021/03/31 03:30:31;;;;;;;6.03;5.43;;;;;;;8.41;53.83;101345.13;5035230;28;20703;-76
2021/03/31 03:32:59;;;;;;;7.63;4.80;;;;;;;8.31;54.68;101345.91;5036593;28;20198;-76
2021/03/31 03:35:28;;;;;;;5.43;4.93;;;;;;;8.21;55.26;101339.78;5041583;28;20298;-76
2021/03/31 03:37:55;;;;;;;8.93;4.73;;;;;;;8.23;55.55;101343.28;5053569;28;20197;-76
2021/03/31 03:40:24;;;;;;;8.30;5.13;;;;;;;8.11;55.98;101348.41;5051278;28;20244;-76
2021/03/31 03:42:50;;;;;;;6.20;5.60;;;;;;;8.06;56.23;101344.91;5036526;28;20198;-76
2021/03/31 03:45:17;;;;;;;7.13;5.63;;;;;;;8.18;54.86;101336.31;5040108;28;20570;-76
2021/03/31 03:47:44;;;;;;;5.80;5.30;;;;;;;8.24;54.73;101341.53;5052314;28;20207;-77
2021/03/31 03:50:12;;;;;;;8.37;5.30;;;;;;;8.26;54.05;101332.88;5043907;28;20228;-76
2021/03/31 03:52:39;;;;;;;7.10;5.20;;;;;;;8.27;53.24;101331.16;5041811;28;20206;-75
2021/03/31 03:55:07;;;;;;;5.17;4.67;;;;;;;8.29;52.60;101334.63;5030779;28;20229;-75
2021/03/31 03:57:33;;;;;;;8.53;5.40;;;;;;;8.20;53.32;101332.84;5040782;28;20209;-76
2021/03/31 03:59:59;;;;;;;5.30;4.73;;;;;;;8.15;51.88;101340.63;5042943;28;20253;-76
2021/03/31 04:02:25;;;;;;;10.87;5.87;;;;;;;8.14;51.94;101331.06;5040729;28;20220;-76
2021/03/31 04:04:51;;;;;;;7.07;5.70;;;;;;;8.26;52.41;101330.28;5046653;28;20213;-76
2021/03/31 04:07:17;;;;;;;7.03;5.73;;;;;;;8.33;51.89;101332.06;5040842;28;20239;-76
2021/03/31 04:09:46;;;;;;;5.57;5.07;;;;;;;8.38;53.21;101332.06;5048747;28;20272;-76
2021/03/31 04:12:14;;;;;;;5.43;4.93;;;;;;;8.38;52.70;101333.81;5046600;28;20223;-77
2021/03/31 04:14:41;;;;;;;6.20;5.60;;;;;;;8.20;55.75;101334.59;5043146;28;20223;-76
2021/03/31 04:17:08;;;;;;;7.57;5.23;;;;;;;8.20;54.77;101331.97;5043803;28;20608;-76
2021/03/31 04:19:36;;;;;;;6.57;5.37;;;;;;;8.09;54.88;101325.00;5046693;28;20217;-76
2021/03/31 04:22:03;;;;;;;6.67;5.77;;;;;;;8.12;54.78;101329.34;5050585;28;20201;-76
2021/03/31 04:24:29;;;;;;;6.63;5.60;;;;;;;8.14;54.14;101327.59;5047674;28;20228;-76
2021/03/31 04:26:56;;;;;;;6.10;5.50;;;;;;;8.11;54.64;101325.88;5049865;28;20197;-77
2021/03/31 04:29:23;;;;;;;6.27;5.73;;;;;;;8.11;54.37;101325.00;5041138;28;20240;-76
2021/03/31 04:31:49;;;;;;;6.60;5.97;;;;;;;8.08;54.11;101327.56;5044143;28;20208;-76
2021/03/31 04:34:16;;;;;;;7.20;6.50;;;;;;;8.08;54.84;101318.03;5043314;28;20229;-75
2021/03/31 04:36:42;;;;;;;7.37;6.67;;;;;;;8.09;54.38;101322.41;5040998;28;20236;-76
2021/03/31 04:39:08;;;;;;;7.67;6.83;;;;;;;8.11;55.75;101319.81;5049728;28;20546;-76
2021/03/31 04:41:35;;;;;;;8.83;7.30;;;;;;;8.10;55.39;101316.31;5044174;28;20209;-76
2021/03/31 04:44:02;;;;;;;7.80;6.37;;;;;;;8.03;55.73;101317.16;5042205;28;20199;-76
2021/03/31 04:46:29;;;;;;;6.90;6.30;;;;;;;8.01;55.90;101313.69;5045033;28;20201;-76
2021/03/31 04:48:55;;;;;;;7.20;6.60;;;;;;;7.89;56.33;101313.63;5050181;28;20205;-76
2021/03/31 04:51:21;;;;;;;8.10;7.30;;;;;;;7.85;55.60;101312.72;5041661;28;20293;-76
2021/03/31 04:53:47;;;;;;;7.37;6.77;;;;;;;7.83;54.41;101304.06;5040749;28;20650;-75
2021/03/31 04:56:13;;;;;;;10.60;7.13;;;;;;;7.84;54.49;101303.16;5042917;28;20227;-76
2021/03/31 04:58:39;;;;;;;9.33;7.63;;;;;;;7.76;55.94;101304.84;5047791;28;20197;-76
2021/03/31 05:01:06;;;;;;;14.20;9.07;;;;;;;7.56;56.53;101307.31;5040913;28;20226;-76
2021/03/31 05:03:32;;;;;;;9.00;8.20;;;;;;;7.51;56.14;101312.50;5045050;28;20211;-76
2021/03/31 05:05:58;;;;;;;7.53;6.83;;;;;;;7.68;57.02;101310.00;5043302;28;20201;-76
2021/03/31 05:08:23;;;;;;;7.73;6.93;;;;;;;7.76;56.83;101310.91;5052448;28;20201;-76
2021/03/31 05:10:49;;;;;;;8.27;7.47;;;;;;;7.78;56.54;101305.72;5043555;28;20378;-75
2021/03/31 05:13:16;;;;;;;9.07;7.70;;;;;;;7.85;57.85;101306.63;5051769;28;20205;-77
2021/03/31 05:15:42;;;;;;;7.53;6.67;;;;;;;7.82;58.76;101304.03;5043425;28;20228;-77
2021/03/31 05:18:09;;;;;;;9.63;6.53;;;;;;;7.77;59.19;101306.63;5051810;28;20201;-77
2021/03/31 05:20:36;;;;;;;8.03;7.00;;;;;;;7.76;58.32;101304.84;5042992;28;20233;-77
2021/03/31 05:23:02;;;;;;;8.57;6.77;;;;;;;7.67;57.67;101290.09;5052131;28;20213;-76
2021/03/31 05:25:28;;;;;;;8.30;7.50;;;;;;;7.69;57.40;101290.97;5035553;28;20205;-76
2021/03/31 05:27:54;;;;;;;9.77;7.57;;;;;;;7.79;57.48;101294.50;5038793;28;20196;-78
2021/03/31 05:30:21;;;;;;;9.73;7.27;;;;;;;7.83;57.46;101287.56;5043469;28;20224;-78
2021/03/31 05:32:47;;;;;;;7.87;7.17;;;;;;;7.91;58.06;101291.09;5032703;28;20226;-77
2021/03/31 05:35:15;;;;;;;8.03;7.33;;;;;;;7.93;57.83;101289.38;5033098;28;20242;-78
2021/03/31 05:37:41;;;;;;;7.80;7.10;;;;;;;7.96;57.05;101286.78;5035072;28;20201;-78
2021/03/31 05:40:08;;;;;;;7.90;7.10;;;;;;;7.91;56.66;101283.31;5033620;28;20229;-77
2021/03/31 05:42:35;;;;;;;9.03;7.47;;;;;;;7.90;56.46;101282.41;5037240;28;20197;-77
2021/03/31 05:45:02;;;;;;;9.20;7.43;;;;;;;7.93;57.03;101279.84;5033843;28;20208;-77
2021/03/31 05:47:31;;;;;;;8.93;6.57;;;;;;;7.99;57.93;101288.50;5039562;28;20693;-77
2021/03/31 05:49:58;;;;;;;7.60;6.90;;;;;;;8.08;58.04;101275.56;5035864;28;20301;-77
2021/03/31 05:52:24;;;;;;;8.17;7.37;;;;;;;8.08;55.91;101284.22;5037894;28;20692;-76
2021/03/31 05:54:50;;;;;;;8.83;7.17;;;;;;;8.18;56.57;101279.94;5032905;28;20214;-76
2021/03/31 05:57:18;;;;;;;11.00;6.70;;;;;;;8.22;56.69;101280.84;5035114;28;20772;-76
2021/03/31 05:59:44;;;;;;;9.23;8.27;;;;;;;8.35;56.53;101280.03;5033710;28;20745;-77
2021/03/31 06:02:12;;;;;;;8.47;7.77;;;;;;;8.40;57.39;101280.03;5038687;28;20207;-81
2021/03/31 06:04:40;;;;;;;8.60;7.53;;;;;;;8.48;57.99;101274.06;5037595;28;20681;-76
2021/03/31 06:07:06;;;;;;;8.60;7.17;;;;;;;8.63;60.27;101280.16;5031905;28;20205;-77
2021/03/31 06:09:33;;;;;;;7.40;6.80;;;;;;;8.78;62.30;101282.81;5041008;28;20229;-77
2021/03/31 06:12:00;;;;;;;7.77;7.07;;;;;;;8.83;59.45;101280.19;5033048;28;20208;-76
2021/03/31 06:14:31;;;;;;;7.37;6.43;;;;;;;8.91;62.04;101287.16;5034207;28;20694;-79
2021/03/31 06:17:05;;;;;;;7.93;7.20;;;;;;;8.78;58.09;101282.81;5043840;28;20357;-77
2021/03/31 06:19:32;;;;;;;10.40;7.87;;;;;;;8.82;57.89;101287.16;5066402;22;20229;-76
2021/03/31 06:22:05;;;;;;;8.57;7.63;;;;;;;8.90;59.73;101285.41;5041422;28;20246;-78
2021/03/31 06:24:33;;;;;;;9.23;7.63;;;;;;;8.92;58.58;101286.28;5056501;28;20683;-79
2021/03/31 06:27:00;;;;;;;9.83;8.33;;;;;;;8.93;58.12;101280.19;5058921;28;20602;-78
2021/03/31 06:29:44;;;;;;;8.97;8.07;;;;;;;8.97;57.81;101277.63;5055973;28;20208;-79
2021/03/31 06:32:17;;;;;;;8.33;7.53;;;;;;;9.14;61.89;101271.56;5032699;28;20204;-79
2021/03/31 06:34:54;;;;;;;7.83;7.03;;;;;;;9.34;65.03;101268.94;5033386;28;20667;-77
2021/03/31 06:37:26;;;;;;;9.80;7.23;;;;;;;9.42;63.09;101276.75;5037142;28;20235;-79
2021/03/31 06:39:52;;;;;;;7.57;6.87;;;;;;;9.57;62.73;101277.59;5034262;28;20229;-79
2021/03/31 06:42:21;;;;;;;8.17;7.17;;;;;;;9.71;64.11;101266.31;5030297;28;20689;-77
2021/03/31 06:44:56;;;;;;;8.63;7.83;;;;;;;9.83;61.12;101272.34;5033465;28;20228;-79
2021/03/31 06:47:26;;;;;;;8.13;7.30;;;;;;;9.88;60.86;101279.28;5032307;28;20675;-79
2021/03/31 06:49:52;;;;;;;8.17;7.37;;;;;;;10.09;61.12;101273.16;5029957;28;20222;-77
2021/03/31 06:52:19;;;;;;;9.43;8.23;;;;;;;10.20;58.27;101272.22;5029320;28;20252;-78
2021/03/31 06:54:47;;;;;;;10.40;7.83;;;;;;;10.33;61.40;101272.22;5038838;28;20204;-78
2021/03/31 06:57:15;;;;;;;9.53;8.63;;;;;;;10.51;60.95;101273.84;5026734;28;20254;-78
2021/03/31 06:59:42;;;;;;;9.27;8.47;;;;;;;10.60;59.46;101272.94;5035087;28;20202;-79
2021/03/31 07:02:08;;;;;;;11.43;8.50;;;;;;;10.68;57.80;101267.66;5026963;28;20726;-78
2021/03/31 07:04:35;;;;;;;8.90;7.50;;;;;;;10.73;59.91;101258.94;5032933;28;20233;-79
2021/03/31 07:07:06;;;;;;;8.60;7.67;;;;;;;10.67;57.86;101264.19;5025965;28;20228;-80
2021/03/31 07:09:32;;;;;;;9.40;8.40;;;;;;;10.86;59.48;101251.91;5036083;28;20386;-79
2021/03/31 07:11:58;;;;;;;9.43;8.40;;;;;;;11.00;59.53;101262.25;5032269;28;20202;-79
2021/03/31 07:14:25;;;;;;;10.63;8.27;;;;;;;11.17;59.29;101256.88;5039696;28;20210;-80
2021/03/31 07:16:53;;;;;;;11.17;8.07;;;;;;;11.32;59.70;101248.91;5044329;28;20278;-78
2021/03/31 07:19:19;;;;;;;10.97;8.30;;;;;;;11.37;54.66;101259.31;5037363;28;20300;-77
2021/03/31 07:21:45;;;;;;;9.30;8.40;;;;;;;11.38;54.54;101255.84;5039555;28;20237;-78
2021/03/31 07:24:14;;;;;;;8.90;7.93;;;;;;;11.43;54.99;101246.19;5034763;28;20746;-78
2021/03/31 07:26:43;;;;;;;9.70;8.53;;;;;;;11.48;56.39;101249.63;5031070;28;20202;-78
2021/03/31 07:29:11;;;;;;;9.17;8.33;;;;;;;11.49;55.12;101246.13;5037879;28;20202;-78
2021/03/31 07:31:42;;;;;;;9.07;7.27;;;;;;;11.58;58.33;101247.78;5032530;28;20222;-79
2021/03/31 07:34:15;;;;;;;9.60;8.30;;;;;;;11.68;57.24;101248.56;5025572;28;20759;-78
2021/03/31 07:36:44;;;;;;;10.10;8.63;;;;;;;11.77;55.27;101238.00;5031145;28;20241;-79
2021/03/31 07:39:11;;;;;;;10.50;9.30;;;;;;;11.86;55.77;101235.28;5037196;28;20210;-77
2021/03/31 07:41:39;;;;;;;9.73;8.73;;;;;;;11.99;56.02;101237.78;5031785;28;20226;-80
2021/03/31 07:44:08;;;;;;;9.60;8.70;;;;;;;12.03;54.37;101234.25;5032089;28;20213;-79
2021/03/31 07:46:38;;;;;;;8.70;7.80;;;;;;;12.03;55.00;101237.75;5034361;28;20242;-81
2021/03/31 07:49:05;;;;;;;17.97;9.93;;;;;;;12.12;55.37;101228.91;5041047;28;20210;-80
2021/03/31 07:51:33;;;;;;;10.90;9.37;;;;;;;12.20;56.49;101232.28;5034486;28;20222;-80
2021/03/31 07:54:01;;;;;;;10.40;9.40;;;;;;;12.26;57.04;101241.81;5049284;28;20204;-80
2021/03/31 07:56:34;;;;;;;10.33;9.33;;;;;;;12.31;58.40;101235.63;5050705;28;20226;-80
2021/03/31 07:59:15;;;;;;;11.10;10.00;;;;;;;12.38;60.39;101241.66;5052079;28;20261;-80
2021/03/31 08:01:44;;;;;;;11.43;10.37;;;;;;;12.42;60.18;101238.09;5048789;28;20234;-80
2021/03/31 08:04:11;;;;;;;12.33;10.30;;;;;;;12.50;59.71;101233.63;5046763;28;20313;-77
2021/03/31 08:06:39;;;;;;;11.80;9.40;;;;;;;12.56;59.97;101234.44;5040539;28;20201;-78
2021/03/31 08:09:08;;;;;;;12.00;10.77;;;;;;;12.62;60.04;101242.19;5040455;28;20716;-80
2021/03/31 08:11:57;;;;;;;11.97;10.87;;;;;;;12.63;59.54;101242.19;5046370;28;20221;-81
2021/03/31 08:14:47;;;;;;;10.60;9.60;;;;;;;12.71;59.02;101235.06;5055607;28;20206;-81
2021/03/31 08:17:15;;;;;;;12.43;11.20;;;;;;;12.79;59.98;101231.47;5031108;28;20226;-80
2021/03/31 08:19:43;;;;;;;11.77;10.60;;;;;;;12.84;60.95;101232.25;5055595;28;20210;-80
2021/03/31 08:22:32;;;;;;;11.97;10.43;;;;;;;12.94;61.52;101228.59;5046822;28;20625;-80
2021/03/31 08:25:00;;;;;;;11.80;10.70;;;;;;;13.06;61.04;101231.03;5021973;28;20207;-80
2021/03/31 08:27:27;;;;;;;10.97;9.70;;;;;;;13.19;59.89;101229.06;5047041;28;20199;-80
2021/03/31 08:29:54;;;;;;;10.10;9.20;;;;;;;13.42;59.43;101223.47;5055356;28;20232;-80
2021/03/31 08:32:22;;;;;;;12.83;9.03;;;;;;;13.74;55.64;101223.75;5045837;28;20742;-80
2021/03/31 08:34:48;;;;;;;8.93;8.03;;;;;;;14.28;53.97;101224.34;5029704;28;20218;-80
2021/03/31 08:37:24;;;;;;;9.57;8.67;;;;;;;14.76;52.05;101219.81;5054308;28;20227;-80
2021/03/31 08:39:52;;;;;;;11.33;8.27;;;;;;;15.27;42.92;101216.81;5021340;28;20230;-80
2021/03/31 08:42:19;;;;;;;11.97;9.50;;;;;;;15.62;43.01;101218.50;5046426;28;20556;-80
2021/03/31 08:44:49;;;;;;;9.63;8.73;;;;;;;15.84;39.58;101210.91;5055182;28;20204;-80
2021/03/31 08:47:18;;;;;;;10.03;8.57;;;;;;;16.12;41.17;101209.25;5041740;28;20209;-81
2021/03/31 08:49:46;;;;;;;9.97;8.97;;;;;;;16.45;38.66;101208.22;5055411;28;20674;-80
2021/03/31 08:52:14;;;;;;;12.10;9.30;;;;;;;16.79;45.60;101209.78;5040939;28;20205;-78
2021/03/31 08:54:43;;;;;;;11.27;10.00;;;;;;;16.68;48.01;101207.47;5050961;28;20234;-78
2021/03/31 08:57:12;;;;;;;12.87;10.50;;;;;;;16.64;50.19;101210.25;5041382;28;20308;-78
2021/03/31 08:59:40;;;;;;;11.77;10.57;;;;;;;16.74;44.29;101208.19;5051933;28;20216;-78
2021/03/31 09:02:07;;;;;;;14.80;9.73;;;;;;;17.01;40.83;101198.56;5037022;28;20250;-78
2021/03/31 09:04:34;;;;;;;10.77;9.57;;;;;;;16.93;42.87;101198.81;5043887;28;20205;-78
2021/03/31 09:07:02;;;;;;;14.27;9.97;;;;;;;17.03;40.43;101192.31;5041641;28;20216;-78
2021/03/31 09:09:32;;;;;;;10.57;9.50;;;;;;;17.11;38.15;101193.84;5035903;28;20205;-76
2021/03/31 09:11:59;;;;;;;10.43;9.47;;;;;;;17.25;36.83;101183.66;5036509;28;20248;-78
2021/03/31 09:14:27;;;;;;;11.03;10.03;;;;;;;17.32;37.22;101181.66;5053594;28;20228;-79
2021/03/31 09:16:54;;;;;;;11.20;8.97;;;;;;;17.46;39.76;101177.63;5044485;28;20225;-78
2021/03/31 09:19:22;;;;;;;10.80;9.67;;;;;;;17.41;40.16;101178.72;5055109;28;20209;-77
2021/03/31 09:21:48;;;;;;;10.50;9.60;;;;;;;17.45;41.79;101175.03;5042896;28;20237;-80
2021/03/31 09:24:16;;;;;;;11.73;10.40;;;;;;;17.45;41.40;101169.75;5050421;28;20612;-79
2021/03/31 09:26:53;;;;;;;11.67;10.47;;;;;;;17.46;39.46;101169.72;5047136;28;20587;-78
2021/03/31 09:29:19;;;;;;;11.07;9.97;;;;;;;17.77;40.21;101171.22;5034125;28;20205;-76
2021/03/31 09:31:46;;;;;;;13.17;10.47;;;;;;;17.87;40.16;101171.78;5041986;28;20225;-78
2021/03/31 09:34:12;;;;;;;12.10;10.90;;;;;;;17.89;41.00;101166.44;5044402;28;20625;-78
2021/03/31 09:36:38;;;;;;;11.00;9.97;;;;;;;17.94;40.02;101169.75;5045054;28;20319;-78
2021/03/31 09:39:06;;;;;;;11.50;10.27;;;;;;;17.97;40.37;101167.84;5041411;28;20752;-79
2021/03/31 09:41:33;;;;;;;10.73;9.63;;;;;;;18.01;40.38;101168.59;5043252;28;20228;-78
2021/03/31 09:43:59;;;;;;;9.97;9.07;;;;;;;18.11;35.13;101161.19;5048285;28;20222;-79
2021/03/31 09:46:27;;;;;;;9.70;8.80;;;;;;;18.33;36.60;101162.06;5050861;28;20205;-82
2021/03/31 09:48:54;;;;;;;9.87;8.10;;;;;;;18.63;33.97;101159.97;5054874;28;20212;-80
2021/03/31 09:51:21;;;;;;;9.77;8.77;;;;;;;18.66;35.35;101159.00;5055327;28;20228;-80
2021/03/31 09:53:48;;;;;;;9.03;8.10;;;;;;;18.71;34.11;101158.78;5051594;28;20216;-80
2021/03/31 09:56:15;;;;;;;10.70;8.27;;;;;;;18.93;33.34;101150.84;5049095;28;20224;-80
2021/03/31 09:58:41;;;;;;;9.10;8.20;;;;;;;18.86;35.53;101150.25;5051500;28;20201;-80
2021/03/31 10:01:11;;;;;;;10.93;8.80;;;;;;;19.03;32.59;101142.47;5048220;28;20611;-82
2021/03/31 10:03:37;;;;;;;10.10;9.07;;;;;;;19.16;32.99;101142.78;5049182;28;20204;-80
2021/03/31 10:06:21;;;;;;;10.47;8.53;;;;;;;19.28;32.05;101135.25;5040748;28;20207;-80
2021/03/31 10:08:48;;;;;;;9.20;8.30;;;;;;;19.36;32.82;101136.59;5055662;28;20192;-80
2021/03/31 10:11:26;;;;;;;9.07;7.97;;;;;;;19.36;32.28;101131.31;5069920;28;20232;-79
2021/03/31 10:13:52;;;;;;;11.03;9.80;;;;;;;19.35;34.26;101128.75;5060336;28;20282;-78
2021/03/31 10:16:18;;;;;;;11.40;8.87;;;;;;;19.35;34.33;101132.25;5055403;28;20643;-78
2021/03/31 10:18:45;;;;;;;11.10;9.27;;;;;;;19.54;33.76;101126.13;5044087;28;20251;-78
2021/03/31 10:21:11;;;;;;;10.13;9.00;;;;;;;19.59;33.03;101126.78;5044933;28;20232;-77
2021/03/31 10:23:44;;;;;;;10.13;8.87;;;;;;;19.69;32.80;101129.88;5044483;28;20216;-78
2021/03/31 10:26:21;;;;;;;10.53;9.13;;;;;;;19.71;32.14;101122.72;5044412;28;20208;-77
2021/03/31 10:28:48;;;;;;;9.03;8.07;;;;;;;19.76;32.48;101116.31;5043865;28;20227;-76
2021/03/31 10:31:25;;;;;;;10.30;9.30;;;;;;;19.87;31.93;101117.59;5040259;28;20243;-76
2021/03/31 10:33:52;;;;;;;9.17;8.37;;;;;;;19.91;32.68;101106.78;5034378;28;20627;-77
2021/03/31 10:36:41;;;;;;;9.97;8.83;;;;;;;19.95;34.40;101110.16;5036208;28;20233;-77
2021/03/31 10:50:33;;;;;;;9.47;8.57;;;;;;;20.18;31.87;101109.06;5044272;28;20605;-75
2021/03/31 10:53:00;;;;;;;9.10;8.30;;;;;;;20.30;30.44;101104.94;5035758;28;20221;-76
2021/03/31 10:55:27;;;;;;;9.17;8.27;;;;;;;20.39;31.82;101112.44;5029375;28;20217;-76
2021/03/31 10:57:54;;;;;;;9.53;8.23;;;;;;;20.40;31.36;101096.44;5031367;28;20202;-76
2021/03/31 11:00:21;;;;;;;10.87;8.93;;;;;;;20.39;30.16;101102.66;5023805;28;20713;-75
2021/03/31 11:02:47;;;;;;;9.67;8.87;;;;;;;20.51;30.59;101101.22;5029689;28;20205;-75
2021/03/31 11:05:13;;;;;;;10.03;9.00;;;;;;;20.59;28.50;101098.22;5031662;28;20788;-75
2021/03/31 11:07:42;;;;;;;10.07;9.13;;;;;;;20.75;28.65;101091.22;5034063;28;20567;-75
2021/03/31 11:10:09;;;;;;;10.37;8.87;;;;;;;20.90;27.67;101084.25;5028901;28;20232;-76
2021/03/31 11:12:35;;;;;;;9.10;8.20;;;;;;;21.12;28.47;101083.13;5031976;28;20194;-75
2021/03/31 11:15:02;;;;;;;9.83;8.83;;;;;;;21.18;28.25;101078.34;5027592;28;20747;-76
2021/03/31 11:17:34;;;;;;;9.13;8.40;;;;;;;21.34;28.50;101081.03;5027924;28;20221;-76
2021/03/31 11:20:08;;;;;;;10.37;8.03;;;;;;;21.49;28.10;101074.06;5020453;28;20253;-76
2021/03/31 11:25:36;;;;;;;8.97;8.17;;;;;;;22.05;25.88;101065.69;5028987;28;20316;-76
2021/03/31 11:28:03;;;;;;;9.97;8.50;;;;;;;22.37;26.20;101059.38;5024323;28;20209;-77
2021/03/31 11:30:29;;;;;;;10.33;8.13;;;;;;;22.41;25.85;101044.94;5030921;28;20230;-77
2021/03/31 11:32:55;;;;;;;8.80;7.80;;;;;;;22.72;26.25;101045.78;5031994;28;20214;-78
2021/03/31 11:35:21;;;;;;;10.10;9.00;;;;;;;22.72;22.40;101044.94;5033544;28;20297;-76
2021/03/31 11:37:47;;;;;;;8.83;8.03;;;;;;;23.54;23.17;101046.97;5033417;28;20264;-77
2021/03/31 11:40:25;;;;;;;9.50;8.60;;;;;;;24.43;20.90;101039.44;5029669;28;20230;-78
2021/03/31 11:42:55;;;;;;;9.50;7.73;;;;;;;26.15;23.68;101041.50;5034136;28;20212;-78
2021/03/31 11:45:21;;;;;;;9.67;8.47;;;;;;;26.94;22.82;101024.81;5032963;28;20641;-78
2021/03/31 11:47:47;;;;;;;9.87;8.97;;;;;;;27.68;20.36;101030.50;5032637;28;20205;-79
2021/03/31 11:50:14;;;;;;;9.50;8.70;;;;;;;27.43;20.59;101029.00;5029185;28;20229;-77